Weather at Hubliki Airstrip

Public forecast

Using degrees Celsius for public forecast. Weather courtesy of forecast.io.

Closest aviation weather report (METAR) to Hubliki Airstrip

Closest report is Dortheys Hiyo Eluay International Airport, 101.3 nm (187.6 km) NE.

2024/07/20 06:00 (retrieved 23 minutes ago)

WAJJ 200600Z 10009KT 9999 FEW013 30/24 Q1008

Closest aviation forecast (TAF) to Hubliki Airstrip

Closest forecast is Bandanaira Airport, 563.8 nm (1,044.1 km) W.

2024/07/20 06:00 (retrieved 23 minutes ago)

TAF WAPC 200500Z 2006/2018 12014KT 8000 SCT018